createdAt,value
2023-05-08T00:00:49.248Z,-0.90
2023-05-08T00:21:06.169Z,-1.20
2023-05-08T00:56:29.895Z,-1.20
2023-05-08T01:01:34.581Z,-1.40
2023-05-08T01:12:05.278Z,-1.20
2023-05-08T01:17:11.473Z,-1.20
2023-05-08T01:22:55.214Z,-1.40
2023-05-08T01:28:34.416Z,-1.30
2023-05-08T01:33:51.764Z,-1.30
2023-05-08T01:39:01.153Z,-1.30
2023-05-08T01:44:15.683Z,-1.30
2023-05-08T01:49:24.186Z,-1.40
2023-05-08T01:54:30.460Z,-1.30
2023-05-08T01:59:35.412Z,-1.30
2023-05-08T02:04:41.144Z,-1.30
2023-05-08T02:09:44.878Z,-1.30
2023-05-08T02:14:49.225Z,-1.60
2023-05-08T02:19:53.566Z,-1.60
2023-05-08T02:24:57.821Z,-1.40
2023-05-08T02:30:00.958Z,-1.40
2023-05-08T02:40:10.751Z,-1.50
2023-05-08T02:45:14.564Z,-1.60
2023-05-08T02:50:22.916Z,-1.60
2023-05-08T02:55:34.331Z,-1.10
2023-05-08T03:00:53.004Z,-0.60
2023-05-08T03:05:58.207Z,-0.30
2023-05-08T03:11:05.679Z,0.00
2023-05-08T03:16:15.717Z,0.10
2023-05-08T03:21:20.655Z,0.50
2023-05-08T03:31:28.594Z,1.80
2023-05-08T03:41:35.084Z,3.00
2023-05-08T03:46:38.975Z,3.70
2023-05-08T03:51:42.574Z,3.70
2023-05-08T03:56:46.113Z,4.70
2023-05-08T04:01:59.153Z,5.70
2023-05-08T04:07:37.715Z,6.90
2023-05-08T04:13:06.632Z,7.70
2023-05-08T04:18:16.042Z,8.90
2023-05-08T04:23:22.316Z,9.40
2023-05-08T04:28:27.102Z,9.40
2023-05-08T04:33:31.159Z,9.80
2023-05-08T04:38:37.879Z,11.10
2023-05-08T04:43:41.978Z,11.40
2023-05-08T04:48:44.703Z,11.60
2023-05-08T04:53:47.648Z,11.20
2023-05-08T04:58:51.304Z,11.50
2023-05-08T05:03:54.644Z,12.20
2023-05-08T05:08:57.483Z,12.20
2023-05-08T05:14:00.653Z,13.20
2023-05-08T05:19:03.560Z,13.80
2023-05-08T05:24:06.879Z,14.40
2023-05-08T05:29:09.563Z,14.30
2023-05-08T05:34:12.651Z,13.90
2023-05-08T05:39:16.642Z,14.00
2023-05-08T05:44:19.413Z,14.10
2023-05-08T05:49:22.856Z,13.40
2023-05-08T05:54:25.664Z,12.80
2023-05-08T05:59:28.633Z,10.70
2023-05-08T06:04:31.988Z,9.70
2023-05-08T06:09:34.713Z,9.10
2023-05-08T06:14:37.223Z,9.00
2023-05-08T06:19:40.784Z,9.00
2023-05-08T06:24:43.986Z,9.40
2023-05-08T06:29:47.900Z,9.60
2023-05-08T06:34:50.560Z,9.60
2023-05-08T06:40:03.976Z,9.10
2023-05-08T06:45:14.018Z,9.10
2023-05-08T06:50:16.841Z,9.30
2023-05-08T06:55:19.517Z,9.80
2023-05-08T07:00:22.122Z,9.80
2023-05-08T07:05:25.008Z,9.90
2023-05-08T07:10:27.634Z,10.00
2023-05-08T07:15:32.138Z,10.30
2023-05-08T07:20:35.532Z,10.60
2023-05-08T07:25:38.301Z,10.90
2023-05-08T07:30:41.128Z,10.60
2023-05-08T07:35:43.703Z,10.70
2023-05-08T07:40:46.389Z,10.90
2023-05-08T07:45:48.980Z,10.90
2023-05-08T07:50:51.807Z,10.80
2023-05-08T07:55:54.529Z,10.80
2023-05-08T08:00:57.174Z,10.80
2023-05-08T08:05:59.817Z,11.00
2023-05-08T08:11:03.829Z,11.30
2023-05-08T08:16:07.117Z,11.40
2023-05-08T08:21:09.861Z,11.30
2023-05-08T08:26:12.436Z,11.50
2023-05-08T08:31:16.501Z,11.30
2023-05-08T08:36:19.093Z,11.40
2023-05-08T08:41:22.221Z,11.20
2023-05-08T08:46:27.029Z,11.50
2023-05-08T08:51:38.175Z,11.90
2023-05-08T08:56:45.044Z,11.90
2023-05-08T09:01:55.239Z,11.60
2023-05-08T09:06:58.576Z,11.80
2023-05-08T09:12:01.352Z,11.70
2023-05-08T09:17:04.074Z,11.90
2023-05-08T09:22:09.288Z,11.90
2023-05-08T09:27:22.813Z,11.80
2023-05-08T09:32:26.019Z,11.90
2023-05-08T09:37:29.455Z,12.40
2023-05-08T09:42:38.853Z,12.80
2023-05-08T09:47:48.694Z,12.80
2023-05-08T09:52:51.577Z,13.50
2023-05-08T09:57:54.230Z,13.30
2023-05-08T10:03:04.133Z,12.90
2023-05-08T10:08:26.513Z,12.70
2023-05-08T10:13:29.723Z,12.60
2023-05-08T10:18:35.397Z,12.70
2023-05-08T10:23:39.027Z,12.70
2023-05-08T10:28:57.999Z,13.00
2023-05-08T10:34:03.166Z,13.40
2023-05-08T10:39:06.304Z,13.70
2023-05-08T10:44:10.426Z,13.40
2023-05-08T10:49:31.812Z,13.20
2023-05-08T10:55:14.398Z,12.90
2023-05-08T11:00:17.919Z,13.10
2023-05-08T11:05:21.047Z,13.20
2023-05-08T11:10:33.330Z,13.30
2023-05-08T11:15:37.752Z,13.80
2023-05-08T11:20:42.324Z,14.30
2023-05-08T11:25:45.087Z,14.80
2023-05-08T11:30:47.639Z,13.90
2023-05-08T11:35:59.009Z,13.70
2023-05-08T11:41:08.754Z,13.80
2023-05-08T11:46:17.076Z,13.30
2023-05-08T11:51:21.898Z,12.70
2023-05-08T11:56:24.987Z,12.90
2023-05-08T12:01:27.552Z,13.40
2023-05-08T12:06:32.068Z,13.80
2023-05-08T12:11:34.547Z,13.70
2023-05-08T12:16:38.747Z,13.80
2023-05-08T12:21:49.626Z,13.30
2023-05-08T12:26:56.487Z,13.30
2023-05-08T12:31:59.385Z,13.40
2023-05-08T12:37:05.193Z,13.50
2023-05-08T12:42:07.805Z,13.50
2023-05-08T12:47:11.153Z,13.30
2023-05-08T12:52:14.797Z,13.20
2023-05-08T12:57:21.583Z,13.30
2023-05-08T13:02:26.461Z,13.50
2023-05-08T13:07:32.847Z,13.70
2023-05-08T13:12:35.708Z,13.80
2023-05-08T13:17:38.488Z,13.70
2023-05-08T13:22:41.052Z,13.70
2023-05-08T13:27:43.550Z,13.70
2023-05-08T13:32:46.067Z,13.80
2023-05-08T13:37:49.142Z,13.60
2023-05-08T13:42:51.977Z,13.10
2023-05-08T13:47:54.924Z,13.60
2023-05-08T13:52:57.525Z,13.60
2023-05-08T13:58:00.399Z,13.40
2023-05-08T14:03:03.293Z,13.70
2023-05-08T14:08:05.966Z,14.00
2023-05-08T14:13:08.617Z,14.20
2023-05-08T14:18:11.115Z,14.70
2023-05-08T14:23:13.797Z,14.30
2023-05-08T14:28:16.284Z,13.50
2023-05-08T14:33:19.348Z,13.40
2023-05-08T14:38:22.256Z,13.70
2023-05-08T14:43:25.370Z,13.90
2023-05-08T14:48:30.831Z,14.20
2023-05-08T14:53:34.887Z,14.40
2023-05-08T14:58:37.746Z,14.50
2023-05-08T15:03:43.100Z,14.60
2023-05-08T15:08:46.498Z,15.00
2023-05-08T15:13:49.177Z,14.50
2023-05-08T15:18:51.858Z,13.70
2023-05-08T15:23:56.084Z,13.10
2023-05-08T15:28:59.999Z,13.50
2023-05-08T15:34:05.574Z,13.90
2023-05-08T15:39:09.705Z,14.20
2023-05-08T15:44:14.331Z,13.80
2023-05-08T15:49:17.102Z,13.10
2023-05-08T15:54:23.460Z,12.40
2023-05-08T15:59:26.409Z,12.60
2023-05-08T16:04:29.346Z,13.20
2023-05-08T16:09:32.910Z,13.60
2023-05-08T16:14:36.597Z,13.70
2023-05-08T16:19:39.836Z,13.80
2023-05-08T16:24:45.304Z,13.80
2023-05-08T16:29:48.202Z,13.70
2023-05-08T16:34:51.471Z,13.80
2023-05-08T16:39:53.984Z,13.60
2023-05-08T16:44:56.698Z,13.30
2023-05-08T16:49:59.777Z,13.10
2023-05-08T16:55:03.549Z,12.80
2023-05-08T17:00:08.140Z,13.20
2023-05-08T17:05:15.732Z,13.70
2023-05-08T17:10:22.730Z,15.20
2023-05-08T17:15:25.282Z,13.90
2023-05-08T17:20:27.864Z,13.50
2023-05-08T17:25:30.311Z,13.10
2023-05-08T17:30:32.818Z,12.40
2023-05-08T17:35:35.464Z,12.20
2023-05-08T17:40:39.297Z,12.20
2023-05-08T17:45:42.134Z,11.70
2023-05-08T17:50:46.894Z,11.50
2023-05-08T17:55:49.474Z,11.20
2023-05-08T18:00:52.414Z,10.70
2023-05-08T18:05:55.094Z,10.20
2023-05-08T18:10:57.773Z,9.80
2023-05-08T18:16:01.223Z,9.50
2023-05-08T18:21:04.103Z,9.20
2023-05-08T18:26:07.466Z,8.70
2023-05-08T18:31:11.019Z,8.00
2023-05-08T18:36:14.080Z,7.60
2023-05-08T18:41:17.107Z,6.80
2023-05-08T18:46:19.817Z,6.90
2023-05-08T18:51:24.868Z,6.50
2023-05-08T18:56:28.057Z,5.40
2023-05-08T19:01:32.776Z,5.20
2023-05-08T19:06:35.328Z,5.10
2023-05-08T19:11:38.351Z,5.00
2023-05-08T19:26:47.593Z,4.50
2023-05-08T19:31:50.348Z,4.20
2023-05-08T19:36:53.122Z,4.10
2023-05-08T20:12:29.966Z,3.00
2023-05-08T20:32:44.637Z,2.60
2023-05-08T20:37:51.166Z,2.60
2023-05-08T20:42:53.690Z,2.40
2023-05-08T20:47:56.442Z,2.40
2023-05-08T20:52:59.252Z,2.50
2023-05-08T20:58:03.582Z,2.80
2023-05-08T21:03:06.161Z,2.60
2023-05-08T21:23:19.803Z,1.80
2023-05-08T21:28:22.441Z,1.50
2023-05-08T21:33:25.474Z,1.40
2023-05-08T21:43:31.226Z,1.50
2023-05-08T21:48:34.559Z,1.30
2023-05-08T21:53:37.262Z,1.40
2023-05-08T22:03:43.282Z,1.10
2023-05-08T22:08:46.077Z,0.90
2023-05-08T22:23:56.634Z,0.70
2023-05-08T22:34:02.970Z,0.70
2023-05-08T22:39:07.571Z,0.90
2023-05-08T22:44:11.557Z,1.00
2023-05-08T22:59:20.258Z,0.80
2023-05-08T23:09:25.997Z,0.50
2023-05-08T23:19:31.719Z,0.70
2023-05-08T23:24:37.751Z,0.50
2023-05-08T23:29:40.832Z,0.90
2023-05-08T23:49:52.578Z,0.50
2023-05-08T23:59:57.985Z,0.20
